Time;durP1;ratioP1;P1;durP2;ratioP2;P2;SDS_P1;SDS_P2;PMS_P1;PMS_P2;Temp;Humidity;BMP_temperature;BMP_pressure;BME280_temperature;BME280_humidity;BME280_pressure;Samples;Min_cycle;Max_cycle;Signal;HPM_P1;HPM_P2
2023/12/01 00:00:00;;;;;;;0.20;0.20;;;;;;;;;;1737914;28;20290;-67
2023/12/01 00:00:51;;;;;;;0.13;0.13;;;;;;;;;;1737347;28;20273;-65
2023/12/01 00:01:42;;;;;;;0.40;0.40;;;;;;;;;;1738497;28;20231;-63
2023/12/01 00:02:34;;;;;;;0.20;0.20;;;;;;;;;;1738326;28;20200;-65
2023/12/01 00:03:25;;;;;;;0.22;0.22;;;;;;;;;;1738046;28;20212;-65
2023/12/01 00:04:18;;;;;;;0.15;0.15;;;;;;;;;;1738257;28;20206;-65
2023/12/01 00:05:10;;;;;;;0.10;0.10;;;;;;;;;;1737869;28;20677;-67
2023/12/01 00:06:01;;;;;;;0.20;0.20;;;;;;;;;;1737136;28;21500;-63
2023/12/01 00:06:53;;;;;;;0.20;0.20;;;;;;;;;;1737845;28;20230;-65
2023/12/01 00:07:44;;;;;;;0.20;0.20;;;;;;;;;;1738897;28;20209;-65
2023/12/01 00:08:36;;;;;;;0.30;0.30;;;;;;;;;;1737881;28;20206;-64
2023/12/01 00:09:27;;;;;;;0.15;0.15;;;;;;;;;;1738538;28;20208;-64
2023/12/01 00:10:18;;;;;;;0.20;0.20;;;;;;;;;;1736637;28;20733;-65
2023/12/01 00:11:10;;;;;;;0.10;0.10;;;;;;;;;;1738477;28;20210;-63
2023/12/01 00:12:01;;;;;;;0.20;0.20;;;;;;;;;;1737864;28;20217;-64
2023/12/01 00:12:53;;;;;;;0.20;0.20;;;;;;;;;;1738082;28;20228;-64
2023/12/01 00:13:44;;;;;;;0.22;0.22;;;;;;;;;;1738338;28;20611;-65
2023/12/01 00:14:36;;;;;;;0.45;0.45;;;;;;;;;;1738471;28;20199;-63
2023/12/01 00:15:27;;;;;;;0.32;0.32;;;;;;;;;;1736266;28;20209;-64
2023/12/01 00:16:18;;;;;;;0.13;0.13;;;;;;;;;;1738547;28;20213;-66
2023/12/01 00:17:10;;;;;;;0.15;0.15;;;;;;;;;;1737598;28;20679;-63
2023/12/01 00:18:01;;;;;;;0.38;0.38;;;;;;;;;;1738328;28;20206;-63
2023/12/01 00:18:52;;;;;;;0.10;0.10;;;;;;;;;;1737424;28;20201;-66
2023/12/01 00:19:45;;;;;;;0.20;0.20;;;;;;;;;;1738554;28;20281;-64
2023/12/01 00:20:36;;;;;;;0.20;0.20;;;;;;;;;;1736435;28;20361;-64
2023/12/01 00:21:28;;;;;;;0.20;0.20;;;;;;;;;;1738429;28;20211;-65
2023/12/01 00:22:19;;;;;;;0.20;0.20;;;;;;;;;;1738101;28;20657;-63
2023/12/01 00:23:10;;;;;;;0.20;0.20;;;;;;;;;;1737770;28;21071;-65
2023/12/01 00:24:02;;;;;;;0.10;0.10;;;;;;;;;;1737862;28;20224;-63
2023/12/01 00:24:53;;;;;;;0.10;0.10;;;;;;;;;;1737748;28;20574;-65
2023/12/01 00:25:45;;;;;;;0.20;0.20;;;;;;;;;;1736876;28;20656;-64
2023/12/01 00:26:36;;;;;;;0.20;0.20;;;;;;;;;;1737974;28;20208;-65
2023/12/01 00:27:27;;;;;;;0.40;0.40;;;;;;;;;;1738049;28;20212;-63
2023/12/01 00:28:19;;;;;;;0.10;0.10;;;;;;;;;;1737917;28;20199;-63
2023/12/01 00:29:10;;;;;;;0.10;0.10;;;;;;;;;;1738102;28;20221;-65
2023/12/01 00:30:02;;;;;;;0.20;0.20;;;;;;;;;;1737960;28;20214;-63
2023/12/01 00:30:54;;;;;;;0.10;0.10;;;;;;;;;;1737268;28;20265;-64
2023/12/01 00:31:45;;;;;;;0.30;0.30;;;;;;;;;;1737978;28;20761;-64
2023/12/01 00:32:36;;;;;;;0.30;0.30;;;;;;;;;;1738241;28;20632;-62
2023/12/01 00:33:28;;;;;;;0.10;0.10;;;;;;;;;;1737685;28;20201;-65
2023/12/01 00:34:19;;;;;;;0.10;0.10;;;;;;;;;;1738282;28;20310;-66
2023/12/01 00:35:12;;;;;;;0.20;0.20;;;;;;;;;;1737692;28;20213;-65
2023/12/01 00:36:03;;;;;;;0.10;0.10;;;;;;;;;;1735095;28;20237;-65
2023/12/01 00:36:55;;;;;;;0.32;0.32;;;;;;;;;;1736729;28;20192;-63
2023/12/01 00:37:47;;;;;;;0.10;0.10;;;;;;;;;;1738379;28;20225;-64
2023/12/01 00:38:38;;;;;;;0.10;0.10;;;;;;;;;;1738306;28;20357;-63
2023/12/01 00:39:29;;;;;;;0.20;0.20;;;;;;;;;;1738130;28;20210;-66
2023/12/01 00:40:22;;;;;;;0.10;0.10;;;;;;;;;;1736837;28;20201;-65
2023/12/01 00:41:14;;;;;;;0.15;0.15;;;;;;;;;;1737861;28;20749;-63
2023/12/01 00:42:06;;;;;;;0.20;0.20;;;;;;;;;;1737709;28;20210;-65
2023/12/01 00:42:57;;;;;;;0.30;0.30;;;;;;;;;;1738188;28;20660;-65
2023/12/01 00:43:49;;;;;;;0.10;0.10;;;;;;;;;;1738237;28;20620;-64
2023/12/01 00:44:41;;;;;;;0.10;0.10;;;;;;;;;;1738624;28;20227;-66
2023/12/01 00:45:32;;;;;;;0.20;0.20;;;;;;;;;;1735741;28;20214;-64
2023/12/01 00:46:24;;;;;;;0.20;0.20;;;;;;;;;;1733996;28;20682;-64
2023/12/01 00:47:15;;;;;;;0.20;0.20;;;;;;;;;;1737435;28;20203;-66
2023/12/01 00:48:06;;;;;;;0.13;0.13;;;;;;;;;;1738094;28;20201;-63
2023/12/01 00:48:58;;;;;;;0.20;0.20;;;;;;;;;;1737616;28;20201;-63
2023/12/01 00:49:49;;;;;;;0.30;0.30;;;;;;;;;;1738552;28;20234;-65
2023/12/01 00:50:43;;;;;;;0.05;0.05;;;;;;;;;;1736753;28;20243;-63
2023/12/01 00:51:34;;;;;;;0.17;0.17;;;;;;;;;;1737174;28;20208;-66
2023/12/01 00:52:25;;;;;;;0.22;0.22;;;;;;;;;;1738056;28;20820;-63
2023/12/01 00:53:16;;;;;;;0.15;0.15;;;;;;;;;;1738106;28;20261;-63
2023/12/01 00:54:07;;;;;;;0.20;0.20;;;;;;;;;;1737192;28;20557;-63
2023/12/01 00:54:59;;;;;;;0.20;0.20;;;;;;;;;;1737840;28;20283;-61
2023/12/01 00:55:50;;;;;;;0.17;0.17;;;;;;;;;;1737885;28;20242;-63
2023/12/01 00:56:42;;;;;;;0.32;0.32;;;;;;;;;;1737727;28;20689;-66
2023/12/01 00:57:33;;;;;;;0.00;0.00;;;;;;;;;;1739705;28;20277;-63
2023/12/01 00:58:25;;;;;;;0.00;0.00;;;;;;;;;;1739085;28;20211;-63
2023/12/01 00:59:16;;;;;;;0.20;0.20;;;;;;;;;;1739789;28;20341;-63
2023/12/01 01:00:08;;;;;;;0.10;0.10;;;;;;;;;;1739251;28;20213;-63
2023/12/01 01:01:00;;;;;;;0.20;0.20;;;;;;;;;;1738385;28;20321;-63
2023/12/01 01:01:51;;;;;;;0.10;0.10;;;;;;;;;;1739872;28;20213;-64
2023/12/01 01:02:43;;;;;;;0.22;0.22;;;;;;;;;;1739104;28;20741;-63
2023/12/01 01:03:35;;;;;;;0.20;0.20;;;;;;;;;;1739184;28;20324;-64
2023/12/01 01:04:26;;;;;;;0.30;0.30;;;;;;;;;;1739269;28;20201;-65
2023/12/01 01:05:18;;;;;;;0.30;0.30;;;;;;;;;;1738962;28;20259;-62
2023/12/01 01:06:10;;;;;;;0.20;0.20;;;;;;;;;;1738591;28;20594;-63
2023/12/01 01:07:03;;;;;;;0.10;0.10;;;;;;;;;;1738926;28;20267;-64
2023/12/01 01:07:54;;;;;;;0.20;0.20;;;;;;;;;;1739567;28;20208;-61
2023/12/01 01:08:45;;;;;;;0.22;0.22;;;;;;;;;;1739108;28;20243;-63
2023/12/01 01:09:37;;;;;;;0.40;0.40;;;;;;;;;;1739404;28;20204;-63
2023/12/01 01:10:28;;;;;;;0.20;0.20;;;;;;;;;;1738025;28;20614;-63
2023/12/01 01:11:20;;;;;;;0.20;0.20;;;;;;;;;;1739603;28;20203;-63
2023/12/01 01:12:11;;;;;;;0.10;0.10;;;;;;;;;;1739215;28;20268;-63
2023/12/01 01:13:02;;;;;;;0.20;0.20;;;;;;;;;;1739342;28;20574;-63
2023/12/01 01:13:54;;;;;;;0.10;0.10;;;;;;;;;;1738489;28;20569;-64
2023/12/01 01:14:45;;;;;;;0.10;0.10;;;;;;;;;;1733678;28;20253;-63
2023/12/01 01:15:36;;;;;;;0.17;0.17;;;;;;;;;;1737400;28;20259;-63
2023/12/01 01:16:28;;;;;;;0.10;0.10;;;;;;;;;;1739721;28;20212;-63
2023/12/01 01:17:19;;;;;;;0.20;0.20;;;;;;;;;;1738487;28;20213;-64
2023/12/01 01:18:10;;;;;;;0.10;0.10;;;;;;;;;;1739425;28;20200;-62
2023/12/01 01:19:02;;;;;;;0.20;0.20;;;;;;;;;;1738949;28;20208;-65
2023/12/01 01:19:53;;;;;;;0.20;0.20;;;;;;;;;;1739468;28;20295;-64
2023/12/01 01:20:45;;;;;;;0.32;0.32;;;;;;;;;;1738214;28;20289;-64
2023/12/01 01:21:37;;;;;;;0.20;0.20;;;;;;;;;;1738940;28;20295;-63
2023/12/01 01:22:28;;;;;;;0.20;0.20;;;;;;;;;;1739235;28;20339;-64
2023/12/01 01:23:20;;;;;;;0.20;0.20;;;;;;;;;;1739088;28;20213;-64
2023/12/01 01:24:11;;;;;;;0.10;0.10;;;;;;;;;;1738433;28;20258;-64
2023/12/01 01:25:04;;;;;;;0.10;0.10;;;;;;;;;;1739068;28;20215;-64
2023/12/01 01:25:56;;;;;;;0.10;0.10;;;;;;;;;;1738337;28;20230;-63
2023/12/01 01:26:47;;;;;;;0.20;0.20;;;;;;;;;;1739543;28;20215;-66
2023/12/01 01:27:38;;;;;;;0.10;0.10;;;;;;;;;;1739202;28;20204;-63
2023/12/01 01:28:30;;;;;;;0.25;0.25;;;;;;;;;;1739056;28;20434;-63
2023/12/01 01:29:21;;;;;;;0.38;0.38;;;;;;;;;;1739335;28;20291;-63
2023/12/01 01:30:12;;;;;;;0.10;0.10;;;;;;;;;;1738243;28;20211;-64
2023/12/01 01:31:04;;;;;;;0.22;0.22;;;;;;;;;;1738989;28;20220;-66
2023/12/01 01:31:55;;;;;;;0.30;0.30;;;;;;;;;;1739235;28;20353;-64
2023/12/01 01:32:48;;;;;;;0.10;0.10;;;;;;;;;;1739525;28;20200;-65
2023/12/01 01:33:39;;;;;;;0.10;0.10;;;;;;;;;;1739033;28;20687;-64
2023/12/01 01:34:31;;;;;;;0.10;0.10;;;;;;;;;;1739331;28;20256;-64
2023/12/01 01:35:22;;;;;;;0.10;0.10;;;;;;;;;;1737723;28;20212;-63
2023/12/01 01:36:13;;;;;;;0.25;0.25;;;;;;;;;;1739206;28;20239;-64
2023/12/01 01:37:07;;;;;;;0.20;0.20;;;;;;;;;;1738952;28;20208;-64
2023/12/01 01:37:58;;;;;;;0.10;0.10;;;;;;;;;;1739623;28;20737;-62
2023/12/01 01:38:49;;;;;;;0.15;0.15;;;;;;;;;;1739334;28;20208;-63
2023/12/01 01:39:41;;;;;;;0.20;0.20;;;;;;;;;;1738918;28;20204;-63
2023/12/01 01:40:32;;;;;;;0.10;0.10;;;;;;;;;;1728696;28;20220;-64
2023/12/01 01:41:23;;;;;;;0.20;0.20;;;;;;;;;;1745946;28;20199;-63
2023/12/01 01:42:15;;;;;;;0.10;0.10;;;;;;;;;;1745053;28;20207;-63
2023/12/01 01:43:06;;;;;;;0.10;0.10;;;;;;;;;;1739736;28;20209;-64
2023/12/01 01:43:59;;;;;;;0.20;0.20;;;;;;;;;;1738752;28;20674;-61
2023/12/01 01:44:50;;;;;;;0.20;0.20;;;;;;;;;;1739275;28;20210;-64
2023/12/01 01:45:41;;;;;;;0.40;0.40;;;;;;;;;;1737545;28;20233;-64
2023/12/01 01:46:33;;;;;;;0.10;0.10;;;;;;;;;;1736833;28;20204;-65
2023/12/01 01:47:24;;;;;;;0.10;0.10;;;;;;;;;;1738894;28;20217;-64
2023/12/01 01:48:15;;;;;;;0.00;0.00;;;;;;;;;;1738962;28;20207;-64
2023/12/01 01:49:07;;;;;;;0.20;0.20;;;;;;;;;;1739071;28;20206;-66
2023/12/01 01:49:58;;;;;;;0.10;0.10;;;;;;;;;;1739223;28;20249;-63
2023/12/01 01:50:50;;;;;;;0.20;0.20;;;;;;;;;;1738435;28;20238;-62
2023/12/01 01:51:41;;;;;;;0.10;0.10;;;;;;;;;;1739076;28;20302;-66
2023/12/01 01:52:34;;;;;;;0.20;0.20;;;;;;;;;;1737402;28;20216;-64
2023/12/01 01:53:26;;;;;;;0.22;0.22;;;;;;;;;;1739256;28;20211;-64
2023/12/01 01:54:17;;;;;;;0.00;0.00;;;;;;;;;;1740187;28;21396;-66
2023/12/01 01:55:12;;;;;;;0.20;0.20;;;;;;;;;;1741246;28;20213;-64
2023/12/01 01:56:04;;;;;;;0.00;0.00;;;;;;;;;;1740240;28;20309;-65
2023/12/01 01:56:55;;;;;;;0.10;0.10;;;;;;;;;;1742677;28;20235;-67
2023/12/01 01:57:48;;;;;;;0.20;0.20;;;;;;;;;;1744118;28;20596;-63
2023/12/01 01:58:39;;;;;;;0.30;0.30;;;;;;;;;;1738604;28;20343;-64
2023/12/01 01:59:30;;;;;;;0.10;0.10;;;;;;;;;;1739417;28;20228;-64
2023/12/01 02:00:23;;;;;;;0.20;0.20;;;;;;;;;;1737516;28;20201;-63
2023/12/01 02:01:15;;;;;;;0.20;0.20;;;;;;;;;;1739137;28;20216;-63
2023/12/01 02:02:06;;;;;;;0.10;0.10;;;;;;;;;;1738903;28;20214;-66
2023/12/01 02:02:58;;;;;;;0.20;0.20;;;;;;;;;;1739108;28;20222;-64
2023/12/01 02:03:50;;;;;;;0.28;0.28;;;;;;;;;;1738971;28;20265;-66
2023/12/01 02:04:42;;;;;;;0.10;0.10;;;;;;;;;;1739495;28;20734;-63
2023/12/01 02:05:34;;;;;;;0.20;0.20;;;;;;;;;;1736554;28;20252;-62
2023/12/01 02:06:30;;;;;;;0.00;0.00;;;;;;;;;;1739527;28;20722;-63
2023/12/01 02:07:26;;;;;;;0.10;0.10;;;;;;;;;;1738038;28;20216;-66
2023/12/01 02:08:22;;;;;;;0.20;0.20;;;;;;;;;;1738760;28;20974;-62
2023/12/01 02:09:14;;;;;;;0.15;0.15;;;;;;;;;;1736481;28;20637;-64
2023/12/01 02:10:06;;;;;;;0.20;0.20;;;;;;;;;;1738567;28;20696;-63
2023/12/01 02:10:57;;;;;;;0.00;0.00;;;;;;;;;;1738253;28;20262;-63
2023/12/01 02:11:49;;;;;;;0.10;0.10;;;;;;;;;;1738869;28;20219;-62
2023/12/01 02:12:40;;;;;;;0.10;0.10;;;;;;;;;;1736810;28;20236;-62
2023/12/01 02:13:33;;;;;;;0.05;0.05;;;;;;;;;;1737454;28;20205;-64
2023/12/01 02:14:24;;;;;;;0.10;0.10;;;;;;;;;;1739129;28;20680;-64
2023/12/01 02:15:16;;;;;;;0.20;0.20;;;;;;;;;;1738652;28;20620;-63
2023/12/01 02:16:08;;;;;;;0.00;0.00;;;;;;;;;;1735724;28;20288;-64
2023/12/01 02:17:00;;;;;;;0.10;0.10;;;;;;;;;;1739064;28;20220;-62
2023/12/01 02:17:51;;;;;;;0.10;0.10;;;;;;;;;;1738149;28;20738;-63
2023/12/01 02:18:43;;;;;;;0.10;0.10;;;;;;;;;;1738685;28;20235;-64
2023/12/01 02:19:34;;;;;;;0.30;0.30;;;;;;;;;;1739193;28;20205;-65
2023/12/01 02:20:25;;;;;;;0.13;0.13;;;;;;;;;;1738067;28;20728;-62
2023/12/01 02:21:17;;;;;;;0.10;0.10;;;;;;;;;;1739704;28;20741;-65
2023/12/01 02:22:09;;;;;;;0.20;0.20;;;;;;;;;;1738908;28;20208;-65
2023/12/01 02:23:02;;;;;;;0.00;0.00;;;;;;;;;;1739590;28;20230;-61
2023/12/01 02:23:55;;;;;;;0.40;0.40;;;;;;;;;;1738975;28;20587;-62
2023/12/01 02:24:46;;;;;;;0.00;0.00;;;;;;;;;;1739410;28;20207;-62
2023/12/01 02:25:37;;;;;;;0.15;0.15;;;;;;;;;;1737455;28;20235;-63
2023/12/01 02:26:29;;;;;;;0.40;0.40;;;;;;;;;;1739873;28;20195;-63
2023/12/01 02:27:20;;;;;;;0.20;0.20;;;;;;;;;;1738933;28;20213;-64
2023/12/01 02:28:11;;;;;;;0.35;0.35;;;;;;;;;;1739175;28;20196;-65
2023/12/01 02:29:04;;;;;;;0.10;0.10;;;;;;;;;;1739482;28;20215;-63
2023/12/01 02:29:55;;;;;;;0.20;0.20;;;;;;;;;;1739288;28;20681;-63
2023/12/01 02:30:48;;;;;;;0.17;0.17;;;;;;;;;;1738095;28;20325;-63
2023/12/01 02:31:40;;;;;;;0.10;0.10;;;;;;;;;;1739460;28;20221;-63
2023/12/01 02:32:31;;;;;;;0.10;0.10;;;;;;;;;;1738947;28;20746;-63
2023/12/01 02:33:24;;;;;;;0.20;0.20;;;;;;;;;;1738962;28;20208;-65
2023/12/01 02:34:15;;;;;;;0.20;0.20;;;;;;;;;;1739209;28;20212;-64
2023/12/01 02:35:09;;;;;;;0.03;0.03;;;;;;;;;;1738800;28;20298;-63
2023/12/01 02:36:03;;;;;;;0.20;0.20;;;;;;;;;;1738220;28;20323;-64
2023/12/01 02:36:58;;;;;;;0.20;0.20;;;;;;;;;;1735811;28;20215;-65
2023/12/01 02:37:50;;;;;;;0.10;0.10;;;;;;;;;;1739080;28;20682;-65
2023/12/01 02:38:42;;;;;;;0.22;0.22;;;;;;;;;;1738689;28;20621;-64
2023/12/01 02:39:36;;;;;;;0.17;0.17;;;;;;;;;;1739011;28;20206;-62
2023/12/01 02:40:27;;;;;;;0.47;0.47;;;;;;;;;;1736551;28;20285;-63
2023/12/01 02:41:19;;;;;;;0.10;0.10;;;;;;;;;;1739271;28;20203;-63
2023/12/01 02:42:10;;;;;;;0.30;0.30;;;;;;;;;;1741639;28;20333;-64
2023/12/01 02:43:01;;;;;;;0.08;0.08;;;;;;;;;;1744212;28;20211;-64
2023/12/01 02:43:54;;;;;;;0.10;0.10;;;;;;;;;;1743668;28;20203;-65
2023/12/01 02:44:45;;;;;;;0.10;0.10;;;;;;;;;;1744101;28;20207;-64
2023/12/01 02:45:36;;;;;;;0.00;0.00;;;;;;;;;;1743071;28;20231;-67
2023/12/01 02:46:28;;;;;;;0.10;0.10;;;;;;;;;;1745121;28;20199;-65
2023/12/01 02:47:19;;;;;;;0.20;0.20;;;;;;;;;;1744589;28;20207;-64
2023/12/01 02:48:10;;;;;;;0.20;0.20;;;;;;;;;;1745588;28;20230;-66
2023/12/01 02:49:02;;;;;;;0.32;0.32;;;;;;;;;;1745263;28;20408;-66
2023/12/01 02:49:53;;;;;;;0.00;0.00;;;;;;;;;;1740640;28;20688;-67
2023/12/01 02:50:45;;;;;;;0.20;0.20;;;;;;;;;;1744438;28;20231;-65
2023/12/01 02:51:37;;;;;;;0.28;0.28;;;;;;;;;;1746169;28;20274;-66
2023/12/01 02:52:28;;;;;;;0.10;0.10;;;;;;;;;;1747013;28;20254;-67
2023/12/01 02:53:20;;;;;;;0.10;0.10;;;;;;;;;;1743402;28;20203;-66
2023/12/01 02:54:12;;;;;;;0.10;0.10;;;;;;;;;;1746162;28;20214;-65
2023/12/01 02:55:03;;;;;;;0.13;0.13;;;;;;;;;;1745986;28;20212;-64
2023/12/01 02:55:55;;;;;;;0.20;0.20;;;;;;;;;;1744815;28;20226;-67
2023/12/01 02:56:46;;;;;;;0.30;0.30;;;;;;;;;;1744142;28;20265;-68
2023/12/01 02:57:39;;;;;;;0.10;0.10;;;;;;;;;;1746561;28;20207;-68
2023/12/01 02:58:31;;;;;;;0.20;0.20;;;;;;;;;;1746420;28;20214;-68
2023/12/01 02:59:22;;;;;;;0.13;0.13;;;;;;;;;;1747265;28;20280;-67
2023/12/01 03:00:14;;;;;;;0.10;0.10;;;;;;;;;;1746709;28;20207;-68
2023/12/01 03:01:06;;;;;;;0.30;0.30;;;;;;;;;;1740067;28;20224;-68
2023/12/01 03:01:57;;;;;;;0.10;0.10;;;;;;;;;;1739905;28;20219;-68
2023/12/01 03:02:48;;;;;;;0.10;0.10;;;;;;;;;;1739733;28;20220;-68
2023/12/01 03:03:40;;;;;;;0.38;0.38;;;;;;;;;;1740097;28;20208;-67
2023/12/01 03:04:31;;;;;;;0.10;0.10;;;;;;;;;;1739853;28;20219;-69
2023/12/01 03:05:22;;;;;;;0.25;0.25;;;;;;;;;;1739209;28;20214;-68
2023/12/01 03:06:14;;;;;;;0.10;0.10;;;;;;;;;;1737876;28;20224;-68
2023/12/01 03:07:05;;;;;;;0.10;0.10;;;;;;;;;;1740019;28;20264;-66
2023/12/01 03:07:57;;;;;;;0.17;0.17;;;;;;;;;;1728776;28;20201;-64
2023/12/01 03:08:50;;;;;;;0.10;0.10;;;;;;;;;;1730562;28;20335;-65
2023/12/01 03:09:41;;;;;;;0.15;0.15;;;;;;;;;;1730194;28;20207;-63
2023/12/01 03:10:33;;;;;;;0.52;0.52;;;;;;;;;;1729603;28;20241;-65
2023/12/01 03:11:24;;;;;;;0.20;0.20;;;;;;;;;;1731877;28;20267;-64
2023/12/01 03:12:15;;;;;;;0.10;0.10;;;;;;;;;;1731546;28;20201;-64
2023/12/01 03:13:07;;;;;;;0.20;0.20;;;;;;;;;;1732048;28;20318;-64
2023/12/01 03:13:58;;;;;;;0.10;0.10;;;;;;;;;;1731564;28;20212;-63
2023/12/01 03:14:49;;;;;;;0.13;0.13;;;;;;;;;;1731768;28;20617;-63
2023/12/01 03:15:41;;;;;;;0.10;0.10;;;;;;;;;;1730325;28;20243;-64
2023/12/01 03:16:32;;;;;;;0.20;0.20;;;;;;;;;;1728828;28;20874;-63
2023/12/01 03:17:23;;;;;;;0.20;0.20;;;;;;;;;;1730368;28;20204;-63
2023/12/01 03:18:15;;;;;;;0.43;0.43;;;;;;;;;;1731121;28;20214;-64
2023/12/01 03:19:08;;;;;;;0.60;0.60;;;;;;;;;;1731467;28;20291;-64
2023/12/01 03:19:59;;;;;;;0.30;0.30;;;;;;;;;;1731619;28;20204;-63
2023/12/01 03:20:53;;;;;;;0.20;0.20;;;;;;;;;;1730600;28;20654;-62
2023/12/01 03:21:44;;;;;;;0.10;0.10;;;;;;;;;;1731607;28;20216;-63
2023/12/01 03:22:35;;;;;;;0.30;0.30;;;;;;;;;;1731630;28;20219;-63
2023/12/01 03:23:27;;;;;;;0.00;0.00;;;;;;;;;;1731268;28;20207;-63
2023/12/01 03:24:19;;;;;;;0.10;0.10;;;;;;;;;;1731539;28;20352;-63
2023/12/01 03:25:11;;;;;;;0.00;0.00;;;;;;;;;;1731238;28;20207;-63
2023/12/01 03:26:03;;;;;;;0.20;0.20;;;;;;;;;;1728133;28;20228;-63
2023/12/01 03:26:54;;;;;;;0.20;0.20;;;;;;;;;;1731086;28;20516;-63
2023/12/01 03:27:47;;;;;;;0.10;0.10;;;;;;;;;;1731873;28;20574;-65
2023/12/01 03:28:38;;;;;;;0.13;0.13;;;;;;;;;;1731198;28;20206;-63
2023/12/01 03:29:32;;;;;;;0.05;0.05;;;;;;;;;;1731790;28;20280;-64
2023/12/01 03:30:23;;;;;;;0.20;0.20;;;;;;;;;;1728987;28;20210;-64
2023/12/01 03:31:15;;;;;;;0.10;0.10;;;;;;;;;;1731802;28;20743;-65
2023/12/01 03:32:07;;;;;;;0.03;0.03;;;;;;;;;;1731504;28;20313;-63
2023/12/01 03:32:59;;;;;;;0.13;0.13;;;;;;;;;;1732039;28;20679;-63
2023/12/01 03:33:50;;;;;;;0.10;0.10;;;;;;;;;;1731863;28;20285;-66
2023/12/01 03:34:42;;;;;;;0.17;0.17;;;;;;;;;;1731738;28;20207;-64
2023/12/01 03:35:33;;;;;;;0.60;0.60;;;;;;;;;;1729527;28;20755;-64
2023/12/01 03:36:24;;;;;;;0.20;0.20;;;;;;;;;;1728788;28;20674;-66
2023/12/01 03:37:16;;;;;;;0.10;0.10;;;;;;;;;;1731430;28;20386;-66
2023/12/01 03:38:08;;;;;;;0.15;0.15;;;;;;;;;;1732050;28;20212;-64
2023/12/01 03:38:59;;;;;;;0.17;0.17;;;;;;;;;;1730339;28;20296;-65
2023/12/01 03:39:51;;;;;;;0.10;0.10;;;;;;;;;;1730904;28;20662;-65
2023/12/01 03:40:44;;;;;;;0.20;0.20;;;;;;;;;;1729846;28;20734;-63
2023/12/01 03:41:35;;;;;;;0.10;0.10;;;;;;;;;;1731379;28;20207;-66
2023/12/01 03:42:26;;;;;;;0.15;0.15;;;;;;;;;;1731586;28;20209;-64
2023/12/01 03:43:18;;;;;;;0.17;0.17;;;;;;;;;;1731330;28;20200;-66
2023/12/01 03:44:09;;;;;;;0.15;0.15;;;;;;;;;;1731735;28;20624;-63
2023/12/01 03:45:00;;;;;;;0.30;0.30;;;;;;;;;;1731289;28;20613;-66
2023/12/01 03:45:52;;;;;;;0.38;0.38;;;;;;;;;;1730335;28;20227;-64
2023/12/01 03:46:43;;;;;;;0.20;0.20;;;;;;;;;;1731548;28;20302;-63
2023/12/01 03:47:35;;;;;;;0.20;0.20;;;;;;;;;;1731382;28;20200;-66
2023/12/01 03:48:27;;;;;;;0.10;0.10;;;;;;;;;;1731769;28;20204;-64
2023/12/01 03:49:18;;;;;;;0.20;0.20;;;;;;;;;;1731438;28;20619;-65
2023/12/01 03:50:11;;;;;;;0.20;0.20;;;;;;;;;;1731794;28;20213;-64
2023/12/01 03:51:03;;;;;;;0.28;0.28;;;;;;;;;;1731671;28;20231;-65
2023/12/01 03:51:54;;;;;;;0.20;0.20;;;;;;;;;;1732250;28;20690;-66
2023/12/01 03:52:46;;;;;;;0.30;0.30;;;;;;;;;;1735970;28;20705;-65
2023/12/01 03:53:38;;;;;;;0.13;0.13;;;;;;;;;;1735668;28;20204;-64
2023/12/01 03:54:29;;;;;;;0.10;0.10;;;;;;;;;;1734767;28;20365;-65
2023/12/01 03:55:21;;;;;;;0.20;0.20;;;;;;;;;;1735833;28;20265;-64
2023/12/01 03:56:13;;;;;;;0.10;0.10;;;;;;;;;;1735229;28;20269;-67
2023/12/01 03:57:05;;;;;;;0.08;0.08;;;;;;;;;;1735057;28;20270;-65
2023/12/01 03:57:56;;;;;;;0.40;0.40;;;;;;;;;;1736402;28;20211;-66
2023/12/01 03:58:48;;;;;;;0.10;0.10;;;;;;;;;;1735764;28;20208;-65
2023/12/01 03:59:39;;;;;;;0.13;0.13;;;;;;;;;;1736101;28;20334;-64
2023/12/01 04:00:32;;;;;;;0.10;0.10;;;;;;;;;;1732003;28;20214;-64
2023/12/01 04:01:23;;;;;;;0.10;0.10;;;;;;;;;;1731823;28;20203;-65
2023/12/01 04:02:15;;;;;;;0.20;0.20;;;;;;;;;;1731002;28;20203;-64
2023/12/01 04:03:07;;;;;;;0.20;0.20;;;;;;;;;;1732182;28;20630;-64
2023/12/01 04:03:58;;;;;;;0.20;0.20;;;;;;;;;;1731198;28;20294;-64
2023/12/01 04:04:49;;;;;;;0.20;0.20;;;;;;;;;;1731604;28;20210;-64
2023/12/01 04:05:41;;;;;;;0.13;0.13;;;;;;;;;;1730136;28;20231;-64
2023/12/01 04:06:32;;;;;;;0.25;0.25;;;;;;;;;;1728119;28;20240;-63
2023/12/01 04:07:23;;;;;;;0.10;0.10;;;;;;;;;;1730717;28;20215;-64
2023/12/01 04:08:15;;;;;;;0.20;0.20;;;;;;;;;;1731039;28;20216;-65
2023/12/01 04:09:09;;;;;;;0.10;0.10;;;;;;;;;;1731994;28;20269;-65
2023/12/01 04:10:00;;;;;;;0.20;0.20;;;;;;;;;;1727098;28;20204;-64
2023/12/01 04:10:55;;;;;;;0.10;0.10;;;;;;;;;;1730464;28;20238;-65
2023/12/01 04:11:46;;;;;;;0.40;0.40;;;;;;;;;;1731267;28;20212;-63
2023/12/01 04:12:39;;;;;;;0.20;0.20;;;;;;;;;;1731541;28;20922;-63
2023/12/01 04:13:31;;;;;;;0.17;0.17;;;;;;;;;;1731330;28;20611;-63
2023/12/01 04:14:22;;;;;;;0.20;0.20;;;;;;;;;;1731737;28;20203;-64
2023/12/01 04:15:13;;;;;;;0.20;0.20;;;;;;;;;;1731087;28;20717;-62
2023/12/01 04:16:08;;;;;;;0.10;0.10;;;;;;;;;;1730555;28;20326;-65
2023/12/01 04:17:08;;;;;;;0.40;0.40;;;;;;;;;;1728699;28;20466;-64
2023/12/01 04:18:06;;;;;;;0.20;0.20;;;;;;;;;;1731743;28;20200;-64
2023/12/01 04:18:57;;;;;;;0.10;0.10;;;;;;;;;;1731136;28;20204;-63
2023/12/01 04:19:48;;;;;;;0.20;0.20;;;;;;;;;;1731612;28;20261;-63
2023/12/01 04:20:40;;;;;;;0.35;0.35;;;;;;;;;;1730366;28;20678;-63
2023/12/01 04:21:31;;;;;;;0.28;0.28;;;;;;;;;;1727920;28;20215;-68
2023/12/01 04:22:22;;;;;;;0.17;0.17;;;;;;;;;;1730760;28;20212;-67
2023/12/01 04:23:14;;;;;;;0.20;0.20;;;;;;;;;;1727567;28;20575;-62
2023/12/01 04:24:06;;;;;;;0.10;0.10;;;;;;;;;;1730503;28;20212;-62
2023/12/01 04:24:57;;;;;;;0.10;0.10;;;;;;;;;;1730955;28;20294;-64
2023/12/01 04:25:49;;;;;;;0.25;0.25;;;;;;;;;;1730117;28;20239;-64
2023/12/01 04:26:41;;;;;;;0.20;0.20;;;;;;;;;;1731279;28;20671;-65
2023/12/01 04:27:32;;;;;;;0.10;0.10;;;;;;;;;;1731469;28;20207;-65
2023/12/01 04:28:24;;;;;;;0.20;0.20;;;;;;;;;;1731310;28;20287;-64
2023/12/01 04:29:15;;;;;;;0.10;0.10;;;;;;;;;;1731430;28;20725;-63
2023/12/01 04:30:14;;;;;;;0.10;0.10;;;;;;;;;;1731645;28;20738;-64
2023/12/01 04:31:06;;;;;;;0.10;0.10;;;;;;;;;;1730623;28;20243;-63
2023/12/01 04:31:57;;;;;;;0.20;0.20;;;;;;;;;;1732439;28;20306;-63
2023/12/01 04:32:52;;;;;;;0.15;0.15;;;;;;;;;;1731948;28;20207;-63
2023/12/01 04:33:44;;;;;;;0.20;0.20;;;;;;;;;;1730401;28;20215;-63
2023/12/01 04:34:35;;;;;;;0.20;0.20;;;;;;;;;;1732547;28;20203;-63
2023/12/01 04:35:27;;;;;;;0.28;0.28;;;;;;;;;;1729940;28;20222;-65
2023/12/01 04:36:19;;;;;;;0.30;0.30;;;;;;;;;;1733487;28;20655;-62
2023/12/01 04:37:11;;;;;;;0.20;0.20;;;;;;;;;;1734760;28;20253;-64
2023/12/01 04:38:03;;;;;;;0.40;0.40;;;;;;;;;;1737773;28;20298;-67
2023/12/01 04:38:55;;;;;;;0.30;0.30;;;;;;;;;;1741203;28;20227;-67
2023/12/01 04:39:46;;;;;;;0.20;0.20;;;;;;;;;;1741129;28;20241;-69
2023/12/01 04:40:38;;;;;;;0.20;0.20;;;;;;;;;;1740041;28;20220;-65
2023/12/01 04:41:29;;;;;;;0.28;0.28;;;;;;;;;;1733126;28;20322;-63
2023/12/01 04:42:22;;;;;;;0.20;0.20;;;;;;;;;;1732680;28;20226;-63
2023/12/01 04:43:14;;;;;;;0.10;0.10;;;;;;;;;;1732362;28;20352;-62
2023/12/01 04:44:05;;;;;;;0.20;0.20;;;;;;;;;;1731985;28;20277;-63
2023/12/01 04:44:56;;;;;;;0.10;0.10;;;;;;;;;;1732369;28;20207;-63
2023/12/01 04:45:48;;;;;;;0.15;0.15;;;;;;;;;;1731132;28;20267;-65
2023/12/01 04:46:39;;;;;;;0.00;0.00;;;;;;;;;;1732797;28;20238;-64
2023/12/01 04:47:30;;;;;;;0.17;0.17;;;;;;;;;;1732319;28;20265;-63
2023/12/01 04:48:22;;;;;;;0.30;0.30;;;;;;;;;;1732656;28;20299;-64
2023/12/01 04:49:13;;;;;;;0.20;0.20;;;;;;;;;;1732489;28;20204;-65
2023/12/01 04:50:12;;;;;;;0.10;0.10;;;;;;;;;;1732491;28;20667;-61
2023/12/01 04:51:04;;;;;;;0.10;0.10;;;;;;;;;;1729933;28;20227;-63
2023/12/01 04:51:55;;;;;;;0.20;0.20;;;;;;;;;;1732261;28;20280;-66
2023/12/01 04:52:47;;;;;;;0.13;0.13;;;;;;;;;;1732890;28;20203;-62
2023/12/01 04:53:39;;;;;;;0.30;0.30;;;;;;;;;;1732344;28;20207;-63
2023/12/01 04:54:30;;;;;;;0.20;0.20;;;;;;;;;;1731906;28;20207;-63
2023/12/01 04:55:24;;;;;;;0.20;0.20;;;;;;;;;;1731689;28;20208;-60
2023/12/01 04:56:15;;;;;;;0.10;0.10;;;;;;;;;;1739313;28;20284;-63
2023/12/01 04:57:06;;;;;;;0.30;0.30;;;;;;;;;;1737909;28;20210;-63
2023/12/01 04:57:59;;;;;;;0.30;0.30;;;;;;;;;;1739564;28;20750;-62
2023/12/01 04:58:50;;;;;;;0.10;0.10;;;;;;;;;;1739444;28;20683;-66
2023/12/01 04:59:41;;;;;;;0.20;0.20;;;;;;;;;;1740010;28;20619;-62
2023/12/01 05:00:33;;;;;;;0.20;0.20;;;;;;;;;;1734236;28;20357;-63
2023/12/01 05:01:24;;;;;;;0.10;0.10;;;;;;;;;;1729153;28;20656;-63
2023/12/01 05:02:15;;;;;;;0.30;0.30;;;;;;;;;;1732144;28;20693;-63
2023/12/01 05:03:07;;;;;;;0.20;0.20;;;;;;;;;;1733787;28;20654;-63
2023/12/01 05:03:58;;;;;;;0.10;0.10;;;;;;;;;;1732953;28;20527;-65
2023/12/01 05:04:50;;;;;;;0.35;0.35;;;;;;;;;;1733184;28;20519;-63
2023/12/01 05:05:42;;;;;;;0.20;0.20;;;;;;;;;;1736732;28;20678;-63
2023/12/01 05:06:34;;;;;;;0.20;0.20;;;;;;;;;;1736582;28;20214;-63
2023/12/01 05:07:31;;;;;;;0.10;0.10;;;;;;;;;;1737703;28;20242;-63
2023/12/01 05:08:23;;;;;;;0.20;0.20;;;;;;;;;;1739129;28;20910;-64
2023/12/01 05:09:16;;;;;;;0.10;0.10;;;;;;;;;;1739476;28;20207;-66
2023/12/01 05:10:14;;;;;;;0.10;0.10;;;;;;;;;;1739483;28;20325;-64